createdAt,value
2019-01-23T00:01:15.145Z,29.52
2019-01-23T00:03:44.637Z,28.12
2019-01-23T00:06:14.142Z,28.55
2019-01-23T00:08:43.679Z,29.40
2019-01-23T00:11:13.177Z,28.57
2019-01-23T00:13:42.703Z,29.12
2019-01-23T00:16:12.245Z,29.32
2019-01-23T00:18:41.763Z,28.60
2019-01-23T00:21:11.255Z,28.50
2019-01-23T00:23:40.977Z,29.95
2019-01-23T00:26:10.462Z,28.25
2019-01-23T00:28:42.419Z,29.52
2019-01-23T00:31:11.199Z,29.20
2019-01-23T00:33:40.876Z,29.65
2019-01-23T00:36:10.367Z,29.25
2019-01-23T00:38:39.908Z,29.72
2019-01-23T00:41:09.437Z,30.45
2019-01-23T00:43:38.933Z,29.57
2019-01-23T00:46:08.684Z,29.92
2019-01-23T00:48:38.178Z,28.70
2019-01-23T00:51:07.713Z,29.80
2019-01-23T00:53:37.219Z,29.67
2019-01-23T00:56:06.746Z,31.12
2019-01-23T00:58:36.250Z,29.87
2019-01-23T01:01:07.633Z,30.57
2019-01-23T01:03:37.712Z,28.47
2019-01-23T01:06:07.246Z,30.43
2019-01-23T01:08:36.834Z,31.60
2019-01-23T01:11:06.326Z,30.17
2019-01-23T01:13:35.802Z,28.20
2019-01-23T01:16:05.722Z,30.35
2019-01-23T01:18:35.229Z,28.92
2019-01-23T01:21:04.792Z,28.40
2019-01-23T01:23:34.282Z,31.87
2019-01-23T01:26:03.785Z,28.77
2019-01-23T01:28:33.263Z,31.05
2019-01-23T01:31:03.304Z,28.45
2019-01-23T01:33:34.015Z,29.30
2019-01-23T01:36:04.145Z,29.45
2019-01-23T01:38:33.681Z,29.37
2019-01-23T01:41:03.185Z,30.00
2019-01-23T01:43:32.694Z,29.27
2019-01-23T01:46:02.203Z,29.87
2019-01-23T01:48:32.147Z,31.33
2019-01-23T01:51:01.600Z,30.32
2019-01-23T01:53:31.467Z,32.20
2019-01-23T01:56:01.041Z,30.97
2019-01-23T01:58:30.505Z,32.00
2019-01-23T02:01:00.037Z,32.85
2019-01-23T02:03:30.371Z,31.55
2019-01-23T02:06:00.222Z,31.27
2019-01-23T02:08:29.762Z,30.40
2019-01-23T02:10:59.237Z,31.95
2019-01-23T02:13:28.776Z,31.33
2019-01-23T02:15:58.881Z,31.97
2019-01-23T02:18:28.347Z,34.18
2019-01-23T02:20:58.368Z,31.55
2019-01-23T02:23:27.907Z,31.45
2019-01-23T02:25:57.487Z,31.30
2019-01-23T02:28:26.967Z,32.58
2019-01-23T02:30:56.481Z,32.95
2019-01-23T02:33:25.960Z,32.58
2019-01-23T02:35:55.440Z,31.35
2019-01-23T02:38:25.002Z,32.13
2019-01-23T02:40:54.507Z,31.00
2019-01-23T02:43:24.001Z,32.23
2019-01-23T02:45:53.535Z,32.67
2019-01-23T02:48:23.050Z,33.28
2019-01-23T02:50:52.523Z,32.93
2019-01-23T02:53:22.091Z,32.10
2019-01-23T02:55:51.575Z,29.45
2019-01-23T02:58:21.043Z,33.78
2019-01-23T03:00:50.684Z,31.80
2019-01-23T03:03:20.168Z,32.33
2019-01-23T03:05:49.702Z,33.13
2019-01-23T03:08:19.193Z,32.15
2019-01-23T03:10:48.682Z,32.73
2019-01-23T03:13:18.197Z,33.95
2019-01-23T03:15:47.711Z,34.45
2019-01-23T03:18:17.613Z,34.25
2019-01-23T03:20:47.082Z,32.45
2019-01-23T03:23:17.995Z,34.33
2019-01-23T03:25:47.477Z,33.15
2019-01-23T03:28:16.989Z,32.83
2019-01-23T03:30:47.399Z,34.03
2019-01-23T03:33:16.892Z,32.30
2019-01-23T03:35:46.384Z,33.60
2019-01-23T03:38:15.886Z,34.38
2019-01-23T03:40:45.388Z,33.50
2019-01-23T03:43:14.923Z,33.50
2019-01-23T03:45:44.670Z,33.02
2019-01-23T03:48:14.167Z,33.92
2019-01-23T03:50:43.677Z,34.92
2019-01-23T03:53:13.234Z,34.25
2019-01-23T03:55:42.778Z,33.15
2019-01-23T03:58:12.298Z,33.25
2019-01-23T04:00:41.876Z,32.85
2019-01-23T04:03:11.377Z,34.00
2019-01-23T04:05:40.886Z,33.10
2019-01-23T04:08:10.674Z,34.63
2019-01-23T04:10:40.190Z,32.80
2019-01-23T04:13:09.723Z,32.75
2019-01-23T04:15:39.320Z,33.42
2019-01-23T04:18:08.822Z,33.02
2019-01-23T04:20:38.302Z,33.23
2019-01-23T04:23:07.822Z,34.10
2019-01-23T04:25:37.346Z,34.40
2019-01-23T04:28:06.911Z,32.93
2019-01-23T04:30:36.900Z,33.58
2019-01-23T04:33:06.427Z,32.40
2019-01-23T04:35:35.907Z,33.50
2019-01-23T04:38:05.488Z,33.40
2019-01-23T04:40:34.972Z,34.95
2019-01-23T04:43:04.550Z,33.45
2019-01-23T04:45:34.051Z,33.50
2019-01-23T04:48:03.564Z,35.50
2019-01-23T04:50:34.673Z,33.90
2019-01-23T04:53:12.499Z,32.38
2019-01-23T04:55:42.005Z,31.45
2019-01-23T04:58:11.507Z,32.67
2019-01-23T05:00:40.987Z,33.13
2019-01-23T05:03:10.474Z,32.88
2019-01-23T05:05:39.975Z,32.63
2019-01-23T05:08:09.996Z,32.70
2019-01-23T05:10:39.490Z,32.45
2019-01-23T05:13:09.069Z,32.98
2019-01-23T05:15:39.043Z,31.70
2019-01-23T05:18:08.541Z,34.73
2019-01-23T05:20:38.044Z,32.65
2019-01-23T05:23:07.604Z,30.92
2019-01-23T05:25:37.115Z,30.80
2019-01-23T05:28:06.653Z,31.50
2019-01-23T05:30:36.211Z,31.77
2019-01-23T05:33:05.677Z,30.90
2019-01-23T05:35:35.179Z,32.28
2019-01-23T05:38:05.120Z,32.28
2019-01-23T05:40:34.626Z,34.33
2019-01-23T05:43:04.640Z,30.65
2019-01-23T05:45:34.153Z,33.45
2019-01-23T05:48:03.628Z,33.55
2019-01-23T05:50:33.119Z,31.33
2019-01-23T05:53:02.668Z,32.98
2019-01-23T05:55:32.133Z,30.90
2019-01-23T05:58:01.643Z,32.28
2019-01-23T06:00:31.203Z,32.65
2019-01-23T06:03:00.713Z,31.77
2019-01-23T06:05:30.259Z,31.27
2019-01-23T06:07:59.801Z,31.85
2019-01-23T06:10:48.846Z,33.18
2019-01-23T06:13:18.387Z,31.27
2019-01-23T06:15:47.874Z,29.95
2019-01-23T06:18:17.378Z,30.92
2019-01-23T06:20:46.961Z,31.95
2019-01-23T06:23:17.514Z,33.15
2019-01-23T06:25:48.491Z,29.90
2019-01-23T06:28:18.014Z,30.85
2019-01-23T06:30:47.487Z,30.20
2019-01-23T06:33:17.082Z,28.67
2019-01-23T06:35:46.577Z,31.77
2019-01-23T06:38:16.391Z,31.30
2019-01-23T06:40:45.899Z,29.95
2019-01-23T06:43:15.495Z,32.05
2019-01-23T06:45:45.324Z,35.28
2019-01-23T06:48:14.870Z,31.60
2019-01-23T06:50:44.405Z,31.50
2019-01-23T06:53:14.354Z,32.38
2019-01-23T06:55:43.983Z,31.60
2019-01-23T06:58:13.546Z,33.53
2019-01-23T07:00:43.061Z,30.37
2019-01-23T07:03:12.643Z,30.80
2019-01-23T07:05:42.377Z,29.77
2019-01-23T07:08:11.945Z,30.30
2019-01-23T07:10:41.423Z,31.65
2019-01-23T07:13:10.941Z,31.80
2019-01-23T07:15:40.437Z,30.48
2019-01-23T07:18:09.963Z,31.77
2019-01-23T07:20:39.499Z,31.52
2019-01-23T07:23:08.967Z,30.62
2019-01-23T07:25:38.472Z,31.12
2019-01-23T07:28:08.206Z,29.63
2019-01-23T07:30:39.141Z,30.68
2019-01-23T07:33:09.091Z,31.27
2019-01-23T07:35:38.616Z,31.50
2019-01-23T07:38:08.158Z,31.20
2019-01-23T07:40:37.685Z,29.63
2019-01-23T07:43:07.217Z,32.90
2019-01-23T07:45:36.724Z,32.75
2019-01-23T07:48:06.234Z,30.10
2019-01-23T07:50:36.264Z,30.68
2019-01-23T07:53:06.179Z,29.25
2019-01-23T07:55:35.689Z,28.90
2019-01-23T07:58:05.280Z,27.65
2019-01-23T08:00:34.752Z,30.85
2019-01-23T08:03:04.311Z,31.33
2019-01-23T08:05:33.820Z,30.52
2019-01-23T08:08:03.388Z,29.57
2019-01-23T08:10:32.920Z,28.32
2019-01-23T08:13:02.706Z,29.85
2019-01-23T08:15:34.835Z,30.02
2019-01-23T08:18:05.088Z,31.97
2019-01-23T08:20:35.971Z,29.75
2019-01-23T08:23:05.601Z,29.32
2019-01-23T08:25:35.107Z,29.92
2019-01-23T08:28:05.619Z,28.95
2019-01-23T08:30:38.895Z,31.60
2019-01-23T08:33:06.385Z,31.23
2019-01-23T08:35:36.166Z,31.95
2019-01-23T08:38:07.220Z,31.50
2019-01-23T08:40:37.009Z,31.62
2019-01-23T08:43:06.973Z,31.60
2019-01-23T08:45:36.947Z,31.70
2019-01-23T08:48:06.491Z,30.50
2019-01-23T08:50:39.824Z,29.82
2019-01-23T08:53:09.392Z,30.68
2019-01-23T08:55:38.953Z,33.78
2019-01-23T08:58:08.842Z,30.72
2019-01-23T09:00:38.316Z,33.38
2019-01-23T09:03:08.007Z,31.82
2019-01-23T09:05:37.580Z,30.82
2019-01-23T09:08:07.581Z,31.65
2019-01-23T09:10:37.068Z,31.25
2019-01-23T09:13:06.601Z,33.80
2019-01-23T09:15:36.096Z,30.75
2019-01-23T09:18:07.878Z,31.80
2019-01-23T09:20:37.487Z,33.55
2019-01-23T09:23:06.998Z,30.57
2019-01-23T09:25:36.469Z,32.70
2019-01-23T09:28:06.016Z,33.23
2019-01-23T09:30:43.392Z,34.65
2019-01-23T09:33:38.484Z,32.20
2019-01-23T09:36:33.047Z,33.35
2019-01-23T09:39:27.454Z,32.95
2019-01-23T09:42:10.816Z,33.18
2019-01-23T09:44:59.405Z,33.73
2019-01-23T09:47:42.302Z,33.53
2019-01-23T09:50:37.396Z,34.20
2019-01-23T09:53:32.301Z,34.90
2019-01-23T09:56:01.870Z,32.40
2019-01-23T09:58:31.376Z,32.45
2019-01-23T10:01:01.016Z,30.95
2019-01-23T10:03:30.532Z,34.98
2019-01-23T10:06:00.090Z,31.77
2019-01-23T10:08:29.586Z,31.80
2019-01-23T10:10:59.131Z,33.60
2019-01-23T10:13:28.628Z,33.38
2019-01-23T10:15:58.271Z,31.85
2019-01-23T10:18:28.314Z,33.02
2019-01-23T10:20:57.826Z,31.52
2019-01-23T10:23:27.278Z,34.92
2019-01-23T10:25:56.823Z,37.40
2019-01-23T10:28:26.920Z,32.58
2019-01-23T10:30:56.570Z,35.05
2019-01-23T10:33:26.204Z,32.40
2019-01-23T10:35:55.734Z,35.33
2019-01-23T10:38:25.248Z,32.00
2019-01-23T10:40:55.014Z,29.60
2019-01-23T10:43:24.517Z,32.60
2019-01-23T10:45:53.983Z,32.67
2019-01-23T10:48:23.543Z,31.68
2019-01-23T10:50:53.055Z,31.52
2019-01-23T10:53:22.570Z,31.15
2019-01-23T10:55:52.065Z,31.20
2019-01-23T10:58:21.547Z,33.55
2019-01-23T11:00:51.050Z,30.02
2019-01-23T11:03:20.692Z,32.95
2019-01-23T11:05:50.198Z,35.43
2019-01-23T11:08:19.679Z,33.58
2019-01-23T11:10:49.209Z,34.50
2019-01-23T11:13:18.722Z,32.23
2019-01-23T11:15:48.268Z,31.10
2019-01-23T11:18:17.810Z,33.08
2019-01-23T11:20:47.406Z,31.85
2019-01-23T11:23:16.996Z,32.88
2019-01-23T11:25:46.884Z,32.28
2019-01-23T11:28:16.372Z,33.35
2019-01-23T11:30:45.872Z,30.37
2019-01-23T11:33:15.401Z,33.23
2019-01-23T11:35:45.326Z,32.90
2019-01-23T11:38:14.904Z,30.95
2019-01-23T11:40:44.540Z,33.75
2019-01-23T11:43:14.048Z,33.08
2019-01-23T11:45:43.619Z,35.38
2019-01-23T11:48:13.462Z,31.55
2019-01-23T11:50:43.226Z,32.48
2019-01-23T11:53:12.772Z,33.23
2019-01-23T11:55:42.322Z,34.50
2019-01-23T11:58:11.781Z,32.33
2019-01-23T12:00:41.324Z,33.33
2019-01-23T12:03:10.877Z,34.35
2019-01-23T12:05:40.404Z,34.23
2019-01-23T12:08:10.282Z,34.10
2019-01-23T12:10:40.122Z,34.13
2019-01-23T12:13:09.614Z,35.00
2019-01-23T12:15:40.932Z,34.40
2019-01-23T12:18:10.369Z,34.55
2019-01-23T12:20:40.221Z,35.10
2019-01-23T12:23:09.689Z,34.10
2019-01-23T12:25:39.207Z,33.73
2019-01-23T12:28:08.687Z,34.75
2019-01-23T12:30:38.707Z,34.00
2019-01-23T12:33:08.444Z,33.85
2019-01-23T12:35:37.984Z,31.85
2019-01-23T12:38:07.470Z,32.85
2019-01-23T12:40:37.009Z,35.52
2019-01-23T12:43:06.526Z,34.78
2019-01-23T12:45:36.018Z,34.45
2019-01-23T12:48:05.658Z,35.35
2019-01-23T12:50:35.285Z,35.58
2019-01-23T12:53:04.841Z,36.33
2019-01-23T12:55:34.547Z,34.03
2019-01-23T12:58:04.087Z,35.40
2019-01-23T13:00:33.611Z,33.70
2019-01-23T13:03:03.211Z,32.98
2019-01-23T13:05:32.816Z,35.17
2019-01-23T13:08:02.261Z,33.85
2019-01-23T13:10:31.777Z,34.23
2019-01-23T13:13:01.339Z,35.00
2019-01-23T13:15:31.039Z,35.70
2019-01-23T13:18:00.806Z,34.00
2019-01-23T13:20:30.296Z,34.90
2019-01-23T13:22:59.864Z,34.30
2019-01-23T13:25:30.460Z,34.70
2019-01-23T13:28:02.466Z,38.40
2019-01-23T13:30:31.933Z,35.70
2019-01-23T13:33:02.193Z,32.90
2019-01-23T13:35:36.133Z,34.03
2019-01-23T13:38:10.375Z,32.70
2019-01-23T13:40:39.948Z,36.33
2019-01-23T13:43:09.515Z,35.95
2019-01-23T13:45:39.115Z,35.13
2019-01-23T13:48:09.381Z,33.88
2019-01-23T13:50:38.886Z,35.75
2019-01-23T13:53:09.069Z,34.90
2019-01-23T13:55:38.535Z,35.70
2019-01-23T13:58:08.190Z,33.08
2019-01-23T14:00:42.823Z,33.95
2019-01-23T14:03:12.388Z,34.10
2019-01-23T14:05:41.890Z,33.63
2019-01-23T14:08:11.936Z,33.00
2019-01-23T14:10:41.457Z,32.55
2019-01-23T14:13:10.920Z,35.00
2019-01-23T14:15:41.400Z,33.25
2019-01-23T14:18:10.893Z,34.30
2019-01-23T14:20:40.443Z,34.10
2019-01-23T14:23:09.968Z,34.53
2019-01-23T14:25:39.488Z,34.38
2019-01-23T14:28:09.057Z,33.95
2019-01-23T14:30:44.935Z,33.58
2019-01-23T14:33:14.844Z,33.45
2019-01-23T14:35:44.358Z,32.42
2019-01-23T14:38:14.010Z,31.05
2019-01-23T14:40:43.493Z,31.77
2019-01-23T14:43:12.973Z,31.73
2019-01-23T14:45:42.495Z,32.48
2019-01-23T14:48:11.980Z,30.55
2019-01-23T14:50:41.475Z,31.50
2019-01-23T14:53:11.052Z,29.80
2019-01-23T14:55:40.545Z,30.75
2019-01-23T14:58:10.094Z,30.82
2019-01-23T15:00:39.720Z,32.48
2019-01-23T15:03:09.229Z,33.20
2019-01-23T15:05:38.716Z,30.85
2019-01-23T15:08:08.313Z,32.38
2019-01-23T15:10:37.820Z,34.90
2019-01-23T15:13:07.743Z,33.40
2019-01-23T15:15:37.662Z,32.93
2019-01-23T15:18:07.475Z,30.68
2019-01-23T15:20:38.909Z,33.98
2019-01-23T15:23:08.435Z,33.85
2019-01-23T15:25:37.949Z,33.28
2019-01-23T15:28:07.506Z,33.95
2019-01-23T15:30:37.112Z,33.10
2019-01-23T15:33:06.593Z,34.80
2019-01-23T15:35:36.171Z,36.50
2019-01-23T15:38:05.977Z,35.68
2019-01-23T15:40:36.573Z,32.78
2019-01-23T15:43:06.172Z,33.42
2019-01-23T15:45:35.877Z,35.30
2019-01-23T15:48:05.514Z,35.80
2019-01-23T15:50:36.826Z,33.20
2019-01-23T15:53:07.028Z,36.30
2019-01-23T15:55:36.600Z,34.05
2019-01-23T15:58:06.161Z,34.30
2019-01-23T16:00:36.790Z,33.88
2019-01-23T16:03:06.355Z,34.38
2019-01-23T16:05:36.308Z,34.83
2019-01-23T16:08:06.334Z,33.58
2019-01-23T16:10:35.848Z,35.25
2019-01-23T16:13:05.406Z,34.23
2019-01-23T16:15:35.026Z,36.95
2019-01-23T16:18:04.586Z,34.18
2019-01-23T16:20:34.090Z,33.75
2019-01-23T16:23:04.052Z,34.33
2019-01-23T16:25:34.025Z,33.50
2019-01-23T16:28:03.488Z,32.78
2019-01-23T16:30:36.584Z,35.00
2019-01-23T16:33:06.808Z,35.50
2019-01-23T16:35:38.798Z,32.05
2019-01-23T16:38:09.410Z,32.93
2019-01-23T16:40:38.888Z,35.05
2019-01-23T16:43:08.451Z,34.67
2019-01-23T16:45:37.946Z,34.63
2019-01-23T16:48:07.589Z,35.70
2019-01-23T16:50:37.181Z,34.75
2019-01-23T16:53:06.731Z,32.48
2019-01-23T16:55:36.375Z,33.58
2019-01-23T16:58:07.515Z,34.98
2019-01-23T17:00:37.434Z,34.50
2019-01-23T17:03:07.650Z,34.58
2019-01-23T17:05:38.906Z,35.98
2019-01-23T17:08:09.642Z,34.08
2019-01-23T17:10:40.883Z,37.45
2019-01-23T17:13:11.309Z,35.58
2019-01-23T17:15:41.607Z,35.10
2019-01-23T17:18:11.161Z,37.60
2019-01-23T17:20:44.389Z,38.65
2019-01-23T17:23:13.938Z,37.40
2019-01-23T17:25:44.139Z,34.67
2019-01-23T17:28:14.823Z,35.88
2019-01-23T17:30:44.699Z,35.50
2019-01-23T17:33:14.188Z,32.70
2019-01-23T17:35:44.122Z,36.40
2019-01-23T17:38:13.646Z,35.50
2019-01-23T17:40:43.151Z,36.80
2019-01-23T17:43:13.933Z,37.03
2019-01-23T17:45:43.530Z,37.93
2019-01-23T17:48:17.731Z,37.15
2019-01-23T17:50:47.367Z,37.03
2019-01-23T17:53:17.453Z,36.90
2019-01-23T17:55:46.968Z,37.05
2019-01-23T17:58:16.888Z,34.83
2019-01-23T18:00:50.680Z,37.38
2019-01-23T18:03:20.289Z,37.48
2019-01-23T18:05:51.237Z,36.65
2019-01-23T18:08:21.642Z,37.10
2019-01-23T18:10:51.176Z,39.80
2019-01-23T18:13:20.686Z,36.30
2019-01-23T18:15:50.250Z,37.00
2019-01-23T18:18:20.385Z,37.00
2019-01-23T18:20:49.851Z,41.45
2019-01-23T18:23:19.370Z,40.52
2019-01-23T18:25:48.853Z,36.28
2019-01-23T18:28:18.355Z,37.90
2019-01-23T18:30:52.733Z,39.40
2019-01-23T18:33:32.147Z,42.78
2019-01-23T18:36:35.178Z,39.20
2019-01-23T18:39:12.064Z,38.13
2019-01-23T18:41:48.957Z,38.80
2019-01-23T18:44:38.840Z,40.03
2019-01-23T18:47:37.472Z,40.60
2019-01-23T18:50:30.895Z,40.05
2019-01-23T18:53:00.915Z,38.42
2019-01-23T18:55:30.417Z,40.03
2019-01-23T18:58:00.428Z,43.85
2019-01-23T19:00:30.029Z,41.92
2019-01-23T19:02:59.521Z,43.60
2019-01-23T19:05:29.789Z,41.25
2019-01-23T19:07:59.737Z,42.93
2019-01-23T19:10:29.519Z,44.35
2019-01-23T19:12:59.409Z,43.95
2019-01-23T19:15:29.533Z,43.78
2019-01-23T19:17:59.210Z,43.60
2019-01-23T19:20:29.220Z,46.53
2019-01-23T19:22:58.758Z,44.35
2019-01-23T19:25:28.437Z,46.15
2019-01-23T19:27:58.430Z,45.95
2019-01-23T19:30:28.355Z,42.80
2019-01-23T19:32:57.836Z,44.73
2019-01-23T19:35:27.415Z,48.05
2019-01-23T19:37:56.962Z,45.12
2019-01-23T19:40:26.470Z,46.85
2019-01-23T19:42:56.153Z,46.83
2019-01-23T19:45:25.797Z,46.18
2019-01-23T19:47:55.279Z,48.00
2019-01-23T19:50:24.788Z,48.50
2019-01-23T19:52:54.397Z,49.15
2019-01-23T19:55:23.957Z,47.50
2019-01-23T19:57:53.527Z,49.95
2019-01-23T20:00:23.582Z,49.48
2019-01-23T20:02:53.109Z,50.52
2019-01-23T20:05:25.978Z,49.15
2019-01-23T20:07:56.173Z,48.38
2019-01-23T20:10:26.215Z,50.08
2019-01-23T20:12:55.829Z,51.90
2019-01-23T20:15:25.475Z,50.25
2019-01-23T20:17:56.614Z,52.83
2019-01-23T20:20:26.122Z,51.50
2019-01-23T20:22:55.718Z,52.80
2019-01-23T20:25:27.135Z,55.35
2019-01-23T20:27:57.275Z,53.02
2019-01-23T20:30:32.047Z,53.60
2019-01-23T20:33:01.635Z,55.20
2019-01-23T20:35:31.244Z,54.05
2019-01-23T20:38:02.098Z,54.40
2019-01-23T20:40:31.670Z,55.17
2019-01-23T20:43:01.188Z,57.25
2019-01-23T20:45:30.847Z,53.83
2019-01-23T20:48:00.374Z,51.90
2019-01-23T20:50:31.802Z,53.78
2019-01-23T20:53:01.717Z,53.68
2019-01-23T20:55:31.361Z,52.17
2019-01-23T20:58:00.923Z,49.15
2019-01-23T21:00:34.340Z,49.05
2019-01-23T21:03:04.330Z,51.42
2019-01-23T21:05:33.905Z,49.70
2019-01-23T21:08:03.869Z,49.38
2019-01-23T21:10:33.370Z,47.75
2019-01-23T21:13:02.997Z,49.10
2019-01-23T21:15:32.602Z,48.52
2019-01-23T21:18:02.109Z,43.80
2019-01-23T21:20:32.346Z,43.92
2019-01-23T21:23:01.859Z,47.00
2019-01-23T21:25:31.382Z,42.25
2019-01-23T21:28:01.000Z,43.92
2019-01-23T21:30:30.606Z,40.60
2019-01-23T21:33:00.114Z,42.43
2019-01-23T21:35:29.613Z,46.40
2019-01-23T21:37:59.151Z,41.77
2019-01-23T21:40:31.462Z,43.70
2019-01-23T21:43:02.805Z,40.83
2019-01-23T21:45:33.122Z,37.60
2019-01-23T21:48:02.644Z,41.68
2019-01-23T21:50:32.163Z,39.73
2019-01-23T21:53:01.681Z,43.20
2019-01-23T21:55:31.179Z,39.30
2019-01-23T21:58:00.690Z,43.05
2019-01-23T22:00:37.927Z,38.73
2019-01-23T22:03:10.248Z,42.67
2019-01-23T22:05:39.951Z,36.50
2019-01-23T22:08:09.816Z,38.13
2019-01-23T22:10:39.413Z,39.65
2019-01-23T22:13:08.945Z,39.27
2019-01-23T22:15:38.954Z,35.83
2019-01-23T22:18:08.642Z,37.98
2019-01-23T22:20:38.289Z,39.33
2019-01-23T22:23:10.661Z,36.00
2019-01-23T22:25:40.139Z,36.83
2019-01-23T22:28:09.765Z,34.80
2019-01-23T22:30:58.714Z,35.90
2019-01-23T22:33:28.200Z,33.67
2019-01-23T22:35:57.667Z,36.17
2019-01-23T22:38:27.241Z,33.02
2019-01-23T22:40:56.757Z,32.93
2019-01-23T22:43:26.238Z,33.28
2019-01-23T22:45:55.728Z,32.65
2019-01-23T22:48:25.218Z,33.20
2019-01-23T22:50:54.881Z,33.65
2019-01-23T22:53:25.968Z,32.28
2019-01-23T22:55:55.476Z,29.42
2019-01-23T22:58:24.968Z,30.68
2019-01-23T23:01:01.960Z,29.10
2019-01-23T23:03:31.796Z,31.25
2019-01-23T23:06:01.255Z,27.62
2019-01-23T23:08:31.332Z,31.37
2019-01-23T23:11:20.153Z,28.32
2019-01-23T23:13:49.696Z,29.23
2019-01-23T23:16:19.278Z,28.90
2019-01-23T23:18:48.779Z,30.10
2019-01-23T23:21:18.713Z,30.27
2019-01-23T23:23:48.181Z,29.90
2019-01-23T23:26:17.689Z,28.05
2019-01-23T23:28:47.378Z,27.58
2019-01-23T23:31:16.871Z,29.52
2019-01-23T23:33:46.384Z,28.25
2019-01-23T23:36:15.993Z,28.27
2019-01-23T23:38:45.492Z,30.25
2019-01-23T23:41:14.969Z,28.95
2019-01-23T23:43:44.501Z,30.52
2019-01-23T23:46:13.999Z,29.67
2019-01-23T23:48:43.552Z,28.95
2019-01-23T23:51:13.147Z,25.85
2019-01-23T23:53:42.653Z,27.60
2019-01-23T23:56:12.180Z,26.42
2019-01-23T23:58:41.694Z,25.95
